Time;durP1;ratioP1;P1;durP2;ratioP2;P2;SDS_P1;SDS_P2;PMS_P1;PMS_P2;Temp;Humidity;BMP_temperature;BMP_pressure;BME280_temperature;BME280_humidity;BME280_pressure;Samples;Min_cycle;Max_cycle;Signal;HPM_P1;HPM_P2
2022/06/13 00:01:25;;;;;;;10.53;4.50;;;;;;;;;;5209885;28;20361;-82
2022/06/13 00:03:56;;;;;;;11.33;4.67;;;;;;;;;;5209231;28;20022;-83
2022/06/13 00:06:27;;;;;;;9.77;4.63;;;;;;;;;;5208909;28;20025;-83
2022/06/13 00:08:58;;;;;;;15.20;4.67;;;;;;;;;;5209845;28;20053;-82
2022/06/13 00:11:29;;;;;;;7.50;3.53;;;;;;;;;;5209416;28;20022;-83
2022/06/13 00:14:01;;;;;;;10.03;4.43;;;;;;;;;;5210016;28;20100;-83
2022/06/13 00:16:32;;;;;;;10.33;4.00;;;;;;;;;;5210874;28;20014;-83
2022/06/13 00:19:04;;;;;;;9.67;4.37;;;;;;;;;;5209912;28;20152;-83
2022/06/13 00:21:36;;;;;;;10.83;3.70;;;;;;;;;;5209563;28;20071;-83
2022/06/13 00:24:07;;;;;;;7.87;4.20;;;;;;;;;;5209480;28;20061;-82
2022/06/13 00:26:38;;;;;;;13.53;6.07;;;;;;;;;;5210759;28;20083;-82
2022/06/13 00:29:10;;;;;;;9.90;4.70;;;;;;;;;;5211058;28;20408;-83
2022/06/13 00:31:41;;;;;;;9.60;5.27;;;;;;;;;;5211202;28;20025;-83
2022/06/13 00:34:12;;;;;;;11.73;4.10;;;;;;;;;;5211624;28;20098;-84
2022/06/13 00:36:43;;;;;;;11.00;4.57;;;;;;;;;;5209609;28;20056;-83
2022/06/13 00:39:15;;;;;;;10.30;4.43;;;;;;;;;;5210910;28;20029;-83
2022/06/13 00:41:46;;;;;;;13.40;5.33;;;;;;;;;;5211457;28;20030;-83
2022/06/13 00:44:22;;;;;;;13.33;4.40;;;;;;;;;;5212055;28;20388;-83
2022/06/13 00:46:54;;;;;;;16.47;4.60;;;;;;;;;;5215071;28;20102;-84
2022/06/13 00:49:30;;;;;;;10.70;4.53;;;;;;;;;;5215228;28;20105;-82
2022/06/13 00:52:05;;;;;;;14.20;4.83;;;;;;;;;;5213658;28;20029;-83
2022/06/13 00:54:37;;;;;;;14.60;5.07;;;;;;;;;;5213720;28;20088;-83
2022/06/13 00:57:13;;;;;;;12.30;4.33;;;;;;;;;;5213969;28;20014;-83
2022/06/13 00:59:45;;;;;;;17.20;5.73;;;;;;;;;;5211408;28;20104;-83
2022/06/13 01:02:16;;;;;;;22.43;6.43;;;;;;;;;;5214717;28;20033;-84
2022/06/13 01:04:50;;;;;;;18.17;5.63;;;;;;;;;;5212832;28;20488;-83
2022/06/13 01:07:21;;;;;;;14.65;5.63;;;;;;;;;;5212420;28;20033;-83
2022/06/13 01:12:43;;;;;;;18.17;5.97;;;;;;;;;;5214905;28;20042;-83
2022/06/13 01:15:14;;;;;;;15.60;5.57;;;;;;;;;;5213977;28;20041;-84
2022/06/13 01:18:06;;;;;;;24.30;6.10;;;;;;;;;;5214580;28;20025;-84
2022/06/13 01:20:49;;;;;;;18.10;5.70;;;;;;;;;;5202625;28;20092;-84
2022/06/13 01:23:26;;;;;;;16.90;5.70;;;;;;;;;;5214111;28;20080;-84
2022/06/13 01:26:18;;;;;;;19.00;5.90;;;;;;;;;;5212925;28;20032;-84
2022/06/13 01:29:06;;;;;;;17.73;6.80;;;;;;;;;;5202096;28;20042;-84
2022/06/13 01:31:49;;;;;;;20.93;6.40;;;;;;;;;;5209792;28;20113;-83
2022/06/13 01:34:20;;;;;;;16.73;6.27;;;;;;;;;;5218796;28;20092;-84
2022/06/13 01:37:09;;;;;;;15.50;4.70;;;;;;;;;;5211939;28;20022;-84
2022/06/13 01:39:59;;;;;;;18.30;4.87;;;;;;;;;;5211104;28;20468;-84
2022/06/13 01:42:36;;;;;;;14.20;5.80;;;;;;;;;;5212584;28;20524;-84
2022/06/13 01:45:13;;;;;;;23.33;5.53;;;;;;;;;;5214344;28;20040;-83
2022/06/13 01:47:44;;;;;;;18.10;5.90;;;;;;;;;;5207666;28;20521;-83
2022/06/13 01:50:22;;;;;;;16.43;5.17;;;;;;;;;;5213994;28;20101;-84
2022/06/13 01:53:06;;;;;;;12.07;5.60;;;;;;;;;;5211503;28;20033;-83
2022/06/13 01:55:38;;;;;;;;;;;;;;;;;;5213793;28;20029;-84
2022/06/13 01:58:12;;;;;;;15.57;6.13;;;;;;;;;;5212706;28;19913;-82
2022/06/13 02:00:46;;;;;;;14.55;5.57;;;;;;;;;;5212421;28;20112;-84
2022/06/13 02:03:26;;;;;;;18.10;5.30;;;;;;;;;;5211906;28;20126;-85
2022/06/13 02:06:03;;;;;;;15.83;6.17;;;;;;;;;;5202432;28;20026;-84
2022/06/13 02:08:47;;;;;;;13.43;5.97;;;;;;;;;;5211494;28;20480;-84
2022/06/13 02:11:28;;;;;;;15.73;5.50;;;;;;;;;;5213316;28;20030;-84
2022/06/13 02:14:08;;;;;;;11.67;5.37;;;;;;;;;;5208144;28;20459;-84
2022/06/13 02:16:45;;;;;;;18.37;6.10;;;;;;;;;;5212420;28;20026;-84
2022/06/13 02:19:23;;;;;;;14.63;5.47;;;;;;;;;;5196658;28;20034;-82
2022/06/13 02:21:59;;;;;;;9.90;5.10;;;;;;;;;;5211057;28;20124;-77
2022/06/13 02:24:42;;;;;;;10.23;5.30;;;;;;;;;;5212515;28;20021;-83
2022/06/13 02:27:15;;;;;;;13.33;5.90;;;;;;;;;;5212929;28;20037;-84
2022/06/13 02:29:56;;;;;;;14.40;5.93;;;;;;;;;;5211881;28;20466;-83
2022/06/13 02:32:39;;;;;;;13.90;6.30;;;;;;;;;;5213473;28;20369;-83
2022/06/13 02:35:22;;;;;;;14.77;6.70;;;;;;;;;;5212461;28;20052;-83
2022/06/13 02:38:00;;;;;;;16.63;7.00;;;;;;;;;;5210411;28;20030;-77
2022/06/13 02:40:34;;;;;;;11.63;5.57;;;;;;;;;;5212312;28;20845;-84
2022/06/13 02:43:05;;;;;;;19.85;6.45;;;;;;;;;;5212551;28;20148;-84
2022/06/13 02:45:43;;;;;;;11.60;6.33;;;;;;;;;;5212900;28;20132;-84
2022/06/13 02:48:19;;;;;;;17.27;6.13;;;;;;;;;;5212938;28;20044;-82
2022/06/13 02:50:57;;;;;;;14.80;6.83;;;;;;;;;;5210492;28;20014;-84
2022/06/13 02:53:32;;;;;;;17.97;7.37;;;;;;;;;;5215203;28;20085;-83
2022/06/13 02:56:10;;;;;;;12.93;6.43;;;;;;;;;;5212340;28;20021;-83
2022/06/13 02:58:52;;;;;;;14.83;6.57;;;;;;;;;;5212763;28;20079;-82
2022/06/13 03:01:28;;;;;;;16.13;7.30;;;;;;;;;;5213006;28;20048;-83
2022/06/13 03:04:11;;;;;;;16.03;6.50;;;;;;;;;;5210780;28;20428;-82
2022/06/13 03:06:51;;;;;;;16.53;7.83;;;;;;;;;;5212023;28;20443;-82
2022/06/13 03:09:28;;;;;;;16.80;7.13;;;;;;;;;;5211207;28;20378;-82
2022/06/13 03:12:06;;;;;;;16.80;7.17;;;;;;;;;;5211289;28;20034;-82
2022/06/13 03:14:38;;;;;;;18.20;7.43;;;;;;;;;;5205580;28;20484;-82
2022/06/13 03:17:37;;;;;;;18.07;7.33;;;;;;;;;;5212045;28;20006;-83
2022/06/13 03:20:10;;;;;;;15.63;6.50;;;;;;;;;;5212377;28;20025;-82
2022/06/13 03:22:47;;;;;;;15.27;6.80;;;;;;;;;;5211599;28;20448;-81
2022/06/13 03:25:36;;;;;;;16.03;8.00;;;;;;;;;;5210476;28;20595;-81
2022/06/13 03:28:10;;;;;;;18.47;6.60;;;;;;;;;;5211763;28;20024;-82
2022/06/13 03:30:43;;;;;;;14.48;7.10;;;;;;;;;;5212231;28;20496;-82
2022/06/13 03:36:17;;;;;;;15.17;6.47;;;;;;;;;;5199638;28;20018;-83
2022/06/13 03:38:52;;;;;;;16.80;7.33;;;;;;;;;;5211511;28;20034;-83
2022/06/13 03:41:26;;;;;;;18.60;7.40;;;;;;;;;;5212332;28;20025;-82
2022/06/13 03:44:00;;;;;;;19.00;7.27;;;;;;;;;;5211740;28;20030;-85
2022/06/13 03:46:37;;;;;;;14.10;6.87;;;;;;;;;;5210743;28;20152;-83
2022/06/13 03:49:15;;;;;;;16.33;7.53;;;;;;;;;;5212022;28;20026;-84
2022/06/13 03:51:49;;;;;;;17.77;7.10;;;;;;;;;;5198423;28;20013;-82
2022/06/13 03:54:23;;;;;;;22.73;8.65;;;;;;;;;;5203734;28;20029;-82
2022/06/13 03:57:13;;;;;;;19.50;7.53;;;;;;;;;;5210172;28;20064;-83
2022/06/13 03:59:50;;;;;;;17.57;8.30;;;;;;;;;;5211041;28;20025;-83
2022/06/13 04:02:24;;;;;;;17.93;7.87;;;;;;;;;;5210358;28;20095;-83
2022/06/13 04:04:56;;;;;;;;;;;;;;;;;;5211228;28;20042;-83
2022/06/13 04:07:29;;;;;;;16.45;7.28;;;;;;;;;;5211297;28;20376;-83
2022/06/13 04:10:04;;;;;;;23.35;8.88;;;;;;;;;;5211181;28;20048;-82
2022/06/13 04:12:45;;;;;;;16.57;8.20;;;;;;;;;;5212087;28;20057;-83
2022/06/13 04:15:22;;;;;;;10.83;6.77;;;;;;;;;;5211007;28;20033;-83
2022/06/13 04:18:12;;;;;;;17.67;7.93;;;;;;;;;;5203893;28;20013;-84
2022/06/13 04:20:44;;;;;;;15.00;7.03;;;;;;;;;;5197771;28;20029;-83
2022/06/13 04:23:15;;;;;;;14.30;7.10;;;;;;;;;;5211755;28;20477;-82
2022/06/13 04:25:53;;;;;;;17.45;7.72;;;;;;;;;;5211377;28;20030;-84
2022/06/13 04:28:28;;;;;;;16.33;7.13;;;;;;;;;;5208930;28;20029;-83
2022/06/13 04:31:00;;;;;;;16.07;8.27;;;;;;;;;;5211297;28;20029;-82
2022/06/13 04:33:43;;;;;;;16.30;7.70;;;;;;;;;;5212106;28;20030;-84
2022/06/13 04:36:15;;;;;;;18.07;7.43;;;;;;;;;;5210240;28;20014;-84
2022/06/13 04:38:49;;;;;;;17.80;7.50;;;;;;;;;;5211153;28;20056;-84
2022/06/13 04:41:25;;;;;;;18.48;8.50;;;;;;;;;;5210198;28;20045;-83
2022/06/13 04:43:59;;;;;;;16.53;7.63;;;;;;;;;;5211354;28;20892;-83
2022/06/13 04:46:31;;;;;;;21.03;8.60;;;;;;;;;;5209688;28;20025;-84
2022/06/13 04:49:05;;;;;;;20.47;8.63;;;;;;;;;;5210955;28;20030;-83
2022/06/13 04:51:41;;;;;;;21.10;9.50;;;;;;;;;;5215299;28;20013;-84
2022/06/13 04:54:15;;;;;;;17.77;8.97;;;;;;;;;;5216282;28;20056;-83
2022/06/13 04:56:47;;;;;;;21.70;8.60;;;;;;;;;;5205219;28;20033;-83
2022/06/13 04:59:18;;;;;;;17.80;9.40;;;;;;;;;;5209334;28;20026;-83
2022/06/13 05:01:50;;;;;;;23.73;8.57;;;;;;;;;;5211363;28;20026;-83
2022/06/13 05:04:26;;;;;;;16.03;8.27;;;;;;;;;;5210849;28;20034;-84
2022/06/13 05:07:10;;;;;;;23.73;9.67;;;;;;;;;;5208146;28;20014;-81
2022/06/13 05:09:43;;;;;;;16.30;7.97;;;;;;;;;;5210400;28;20069;-82
2022/06/13 05:12:20;;;;;;;20.63;8.80;;;;;;;;;;5211195;28;20026;-83
2022/06/13 05:15:13;;;;;;;21.17;10.20;;;;;;;;;;5210966;28;20259;-83
2022/06/13 05:17:53;;;;;;;21.53;9.63;;;;;;;;;;5209927;28;20475;-82
2022/06/13 05:20:47;;;;;;;17.90;9.47;;;;;;;;;;5209298;28;20022;-84
2022/06/13 05:23:42;;;;;;;19.90;9.63;;;;;;;;;;5209460;28;20048;-84
2022/06/13 05:26:13;;;;;;;22.45;9.50;;;;;;;;;;5209502;28;20554;-85
2022/06/13 05:28:44;;;;;;;27.03;9.93;;;;;;;;;;5208810;28;20052;-85
2022/06/13 05:31:18;;;;;;;19.67;8.30;;;;;;;;;;5207096;28;20018;-83
2022/06/13 05:33:50;;;;;;;21.75;10.20;;;;;;;;;;5213704;28;20076;-81
2022/06/13 05:36:23;;;;;;;20.90;8.87;;;;;;;;;;5202301;28;20025;-82
2022/06/13 05:38:56;;;;;;;26.17;9.30;;;;;;;;;;5212934;28;20381;-82
2022/06/13 05:41:28;;;;;;;22.93;10.50;;;;;;;;;;5205385;28;20076;-75
2022/06/13 05:43:59;;;;;;;25.63;8.97;;;;;;;;;;5213368;28;20053;-76
2022/06/13 05:46:35;;;;;;;24.07;8.87;;;;;;;;;;5211614;28;20042;-76
2022/06/13 05:49:07;;;;;;;24.63;9.23;;;;;;;;;;5213097;28;20045;-76
2022/06/13 05:51:38;;;;;;;21.97;8.73;;;;;;;;;;5196972;28;20026;-76
2022/06/13 05:54:09;;;;;;;18.13;8.30;;;;;;;;;;5199101;28;20045;-76
2022/06/13 05:56:41;;;;;;;20.37;8.70;;;;;;;;;;5194830;28;20026;-76
2022/06/13 05:59:12;;;;;;;17.97;7.17;;;;;;;;;;5208862;28;20421;-77
2022/06/13 06:01:43;;;;;;;16.33;7.00;;;;;;;;;;5193453;28;20237;-76
2022/06/13 06:04:14;;;;;;;23.73;7.17;;;;;;;;;;5194985;28;20118;-77
2022/06/13 06:06:45;;;;;;;19.35;7.05;;;;;;;;;;5195485;28;20011;-76
2022/06/13 06:09:17;;;;;;;20.23;7.20;;;;;;;;;;5199095;28;20047;-76
2022/06/13 06:11:49;;;;;;;25.60;7.87;;;;;;;;;;5207960;28;20044;-75
2022/06/13 06:14:20;;;;;;;22.42;7.50;;;;;;;;;;5202596;28;20025;-76
2022/06/13 06:16:51;;;;;;;21.77;8.07;;;;;;;;;;5199195;28;20022;-76
2022/06/13 06:19:22;;;;;;;22.87;8.40;;;;;;;;;;5198441;28;20030;-76
2022/06/13 06:21:53;;;;;;;17.65;7.78;;;;;;;;;;5207789;28;20112;-76
2022/06/13 06:24:25;;;;;;;19.90;8.27;;;;;;;;;;5206412;28;20022;-76
2022/06/13 06:26:56;;;;;;;21.30;8.10;;;;;;;;;;5209196;28;20018;-76
2022/06/13 06:29:27;;;;;;;17.17;7.40;;;;;;;;;;5210710;28;20025;-76
2022/06/13 06:31:59;;;;;;;19.13;6.95;;;;;;;;;;5209022;28;20075;-76
2022/06/13 06:34:30;;;;;;;18.90;6.30;;;;;;;;;;5201477;28;20041;-75
2022/06/13 06:37:01;;;;;;;18.30;6.17;;;;;;;;;;5203616;28;20041;-76
2022/06/13 06:39:32;;;;;;;18.27;6.10;;;;;;;;;;5198745;28;20068;-75
2022/06/13 06:42:04;;;;;;;17.03;5.43;;;;;;;;;;5200431;28;20030;-75
2022/06/13 06:44:35;;;;;;;15.77;5.00;;;;;;;;;;5209568;28;20099;-76
2022/06/13 06:47:06;;;;;;;12.90;4.63;;;;;;;;;;5210465;28;20096;-75
2022/06/13 06:49:38;;;;;;;17.60;4.97;;;;;;;;;;5201830;28;20091;-78
2022/06/13 06:52:09;;;;;;;17.10;5.10;;;;;;;;;;5195882;28;20122;-79
2022/06/13 07:00:21;;;;;;;9.67;3.90;;;;;;;;;;5198184;28;20041;-80
2022/06/13 07:02:52;;;;;;;11.63;3.70;;;;;;;;;;5196306;28;20037;-80
2022/06/13 07:05:24;;;;;;;15.77;4.30;;;;;;;;;;5195097;28;20015;-79
2022/06/13 07:07:55;;;;;;;11.03;2.93;;;;;;;;;;5200667;28;20048;-79
2022/06/13 07:10:26;;;;;;;8.83;2.73;;;;;;;;;;5197051;28;20042;-79
2022/06/13 07:12:57;;;;;;;9.13;2.60;;;;;;;;;;5206222;28;20488;-76
2022/06/13 07:15:28;;;;;;;9.67;2.63;;;;;;;;;;5196025;28;20109;-78
2022/06/13 07:18:00;;;;;;;10.53;3.00;;;;;;;;;;5193340;28;20018;-78
2022/06/13 07:20:31;;;;;;;10.87;2.73;;;;;;;;;;5198568;28;20019;-78
2022/06/13 07:23:02;;;;;;;11.00;3.13;;;;;;;;;;5201224;28;20030;-79
2022/06/13 07:25:34;;;;;;;9.70;3.13;;;;;;;;;;5205130;28;20068;-79
2022/06/13 07:28:05;;;;;;;5.90;2.60;;;;;;;;;;5210189;28;20689;-78
2022/06/13 07:30:36;;;;;;;8.50;2.40;;;;;;;;;;5208971;28;20161;-78
2022/06/13 07:33:07;;;;;;;8.73;2.78;;;;;;;;;;5210138;28;20053;-78
2022/06/13 07:35:38;;;;;;;11.00;2.63;;;;;;;;;;5208697;28;20437;-76
2022/06/13 07:38:16;;;;;;;8.13;2.83;;;;;;;;;;5209166;28;20038;-75
2022/06/13 07:40:49;;;;;;;8.38;2.88;;;;;;;;;;5209270;28;20096;-76
2022/06/13 07:43:21;;;;;;;12.40;2.95;;;;;;;;;;5207956;28;20061;-76
2022/06/13 07:45:52;;;;;;;8.70;2.50;;;;;;;;;;5209815;28;20103;-78
2022/06/13 07:48:24;;;;;;;10.48;2.70;;;;;;;;;;5202540;28;20280;-78
2022/06/13 07:50:56;;;;;;;7.05;2.47;;;;;;;;;;5195247;28;20681;-78
2022/06/13 07:53:28;;;;;;;11.15;3.00;;;;;;;;;;5196416;28;20436;-77
2022/06/13 07:55:59;;;;;;;8.50;2.83;;;;;;;;;;5207687;28;20029;-77
2022/06/13 07:58:32;;;;;;;9.52;2.00;;;;;;;;;;5208552;28;20029;-77
2022/06/13 08:01:04;;;;;;;9.73;2.35;;;;;;;;;;5206535;28;20503;-77
2022/06/13 08:03:36;;;;;;;6.90;2.65;;;;;;;;;;5207207;28;20021;-76
2022/06/13 08:06:07;;;;;;;9.27;2.95;;;;;;;;;;5207217;28;20071;-77
2022/06/13 08:08:40;;;;;;;9.27;2.60;;;;;;;;;;5205957;28;20025;-79
2022/06/13 08:11:13;;;;;;;7.93;2.47;;;;;;;;;;5209441;28;20017;-77
2022/06/13 08:13:44;;;;;;;10.20;2.80;;;;;;;;;;5207720;28;20825;-77
2022/06/13 08:16:15;;;;;;;9.00;2.50;;;;;;;;;;5210005;28;20061;-77
2022/06/13 08:18:46;;;;;;;10.75;3.00;;;;;;;;;;5208568;28;20041;-77
2022/06/13 08:21:17;;;;;;;10.02;2.85;;;;;;;;;;5208363;28;20400;-77
2022/06/13 08:23:49;;;;;;;7.18;3.08;;;;;;;;;;5207986;28;20022;-76
2022/06/13 08:26:20;;;;;;;9.18;3.28;;;;;;;;;;5207196;28;20041;-77
2022/06/13 08:28:51;;;;;;;11.52;3.10;;;;;;;;;;5208741;28;20032;-76
2022/06/13 08:31:22;;;;;;;10.32;4.75;;;;;;;;;;5207529;28;20125;-76
2022/06/13 08:33:54;;;;;;;7.97;2.60;;;;;;;;;;5206801;28;20093;-77
2022/06/13 08:36:25;;;;;;;8.48;2.75;;;;;;;;;;5202878;28;20033;-76
2022/06/13 08:38:56;;;;;;;9.48;2.75;;;;;;;;;;5207828;28;20033;-75
2022/06/13 08:41:44;;;;;;;7.75;2.35;;;;;;;;;;5209757;28;20485;-77
2022/06/13 08:44:33;;;;;;;7.30;2.20;;;;;;;;;;5207551;28;20038;-76
2022/06/13 08:47:15;;;;;;;9.73;2.45;;;;;;;;;;5208702;28;20456;-76
2022/06/13 08:50:07;;;;;;;6.90;2.80;;;;;;;;;;5205914;28;20018;-76
2022/06/13 08:52:46;;;;;;;8.85;2.15;;;;;;;;;;5199985;28;20528;-77
2022/06/13 08:55:25;;;;;;;10.25;2.30;;;;;;;;;;5206572;28;20040;-76
2022/06/13 08:58:05;;;;;;;6.78;2.50;;;;;;;;;;5207910;28;20018;-77
2022/06/13 09:00:38;;;;;;;6.47;2.28;;;;;;;;;;5206543;28;20492;-78
2022/06/13 09:03:28;;;;;;;8.75;2.63;;;;;;;;;;5190302;28;20030;-77
2022/06/13 09:06:02;;;;;;;11.18;3.15;;;;;;;;;;5206053;28;20052;-78
2022/06/13 09:08:37;;;;;;;5.22;1.90;;;;;;;;;;5212900;28;20017;-77
2022/06/13 09:11:19;;;;;;;7.72;2.22;;;;;;;;;;5210662;28;20612;-78
2022/06/13 09:13:54;;;;;;;8.35;2.40;;;;;;;;;;5207156;28;20057;-77
2022/06/13 09:16:32;;;;;;;4.43;1.52;;;;;;;;;;5212094;28;20076;-76
2022/06/13 09:19:06;;;;;;;6.40;1.30;;;;;;;;;;5212286;28;20014;-76
2022/06/13 09:21:43;;;;;;;6.28;2.05;;;;;;;;;;5211254;28;20373;-75
2022/06/13 09:24:33;;;;;;;8.32;1.73;;;;;;;;;;5207617;28;20797;-75
2022/06/13 09:27:06;;;;;;;7.07;1.80;;;;;;;;;;5225778;28;20033;-75
2022/06/13 09:29:51;;;;;;;7.35;1.52;;;;;;;;;;5211524;28;20049;-75
2022/06/13 09:32:26;;;;;;;6.80;2.00;;;;;;;;;;5210692;28;20057;-75
2022/06/13 09:35:24;;;;;;;9.98;3.20;;;;;;;;;;5208442;28;20822;-75
2022/06/13 09:37:56;;;;;;;9.68;4.50;;;;;;;;;;5207380;28;20034;-75
2022/06/13 09:40:43;;;;;;;9.68;3.75;;;;;;;;;;5211415;28;20481;-75
2022/06/13 09:43:21;;;;;;;5.63;1.80;;;;;;;;;;5209875;28;20044;-73
2022/06/13 09:45:58;;;;;;;9.27;1.98;;;;;;;;;;5210892;28;20400;-73
2022/06/13 09:48:35;;;;;;;8.30;2.28;;;;;;;;;;5210087;28;20026;-76
2022/06/13 09:51:16;;;;;;;7.88;1.85;;;;;;;;;;5224364;28;20109;-82
2022/06/13 09:54:06;;;;;;;7.25;1.60;;;;;;;;;;5211060;28;20033;-75
2022/06/13 09:56:48;;;;;;;6.85;1.55;;;;;;;;;;5210754;28;20049;-74
2022/06/13 09:59:40;;;;;;;9.88;2.00;;;;;;;;;;5207820;28;20684;-75
2022/06/13 10:02:23;;;;;;;6.50;1.60;;;;;;;;;;5195531;28;20030;-75
2022/06/13 10:05:12;;;;;;;5.40;2.08;;;;;;;;;;5205531;28;20026;-73
2022/06/13 10:07:48;;;;;;;8.02;2.70;;;;;;;;;;5194675;28;20076;-72
2022/06/13 10:10:19;;;;;;;6.90;2.05;;;;;;;;;;5193871;28;20050;-72
2022/06/13 10:12:54;;;;;;;6.05;1.42;;;;;;;;;;5196109;28;20026;-72
2022/06/13 10:15:32;;;;;;;5.57;1.67;;;;;;;;;;5205307;28;20769;-73
2022/06/13 10:18:21;;;;;;;7.30;1.80;;;;;;;;;;5192544;28;20022;-73
2022/06/13 10:21:16;;;;;;;5.20;2.08;;;;;;;;;;5203290;28;20038;-73
2022/06/13 10:23:53;;;;;;;9.73;2.13;;;;;;;;;;5197150;28;20037;-73
2022/06/13 10:26:43;;;;;;;4.90;2.17;;;;;;;;;;5201080;28;20684;-75
2022/06/13 10:29:17;;;;;;;6.28;3.38;;;;;;;;;;5204549;28;20504;-74
2022/06/13 10:31:57;;;;;;;5.28;3.38;;;;;;;;;;5195431;28;20022;-74
2022/06/13 10:34:28;;;;;;;5.93;2.95;;;;;;;;;;5203796;28;20022;-74
2022/06/13 10:36:59;;;;;;;5.05;2.28;;;;;;;;;;5208138;28;20679;-75
2022/06/13 10:39:31;;;;;;;5.38;1.58;;;;;;;;;;5210560;28;20301;-75
2022/06/13 10:42:07;;;;;;;5.03;1.30;;;;;;;;;;5203929;28;20358;-75
2022/06/13 10:44:39;;;;;;;8.07;1.85;;;;;;;;;;5208757;28;20018;-75
2022/06/13 10:47:16;;;;;;;7.47;2.03;;;;;;;;;;5208890;28;20044;-74
2022/06/13 10:50:07;;;;;;;8.60;2.45;;;;;;;;;;5209186;28;20018;-74
2022/06/13 10:52:40;;;;;;;5.53;2.15;;;;;;;;;;5211634;28;20160;-74
2022/06/13 10:55:13;;;;;;;5.47;1.60;;;;;;;;;;5206845;28;20511;-74
2022/06/13 10:58:05;;;;;;;6.55;1.80;;;;;;;;;;5204498;28;20021;-73
2022/06/13 11:00:37;;;;;;;6.55;2.00;;;;;;;;;;5209318;28;20034;-76
2022/06/13 11:03:13;;;;;;;5.72;2.67;;;;;;;;;;5208166;28;20026;-75
2022/06/13 11:05:53;;;;;;;8.40;2.30;;;;;;;;;;5209170;28;20049;-75
2022/06/13 11:08:25;;;;;;;10.65;2.63;;;;;;;;;;5210448;28;20030;-75
2022/06/13 11:10:57;;;;;;;6.10;2.10;;;;;;;;;;5212620;28;20057;-75
2022/06/13 11:13:36;;;;;;;3.40;1.50;;;;;;;;;;5209589;28;20080;-77
2022/06/13 11:25:15;;;;;;;6.80;1.60;;;;;;;;;;5199326;28;20253;-77
2022/06/13 11:27:58;;;;;;;3.75;1.15;;;;;;;;;;5206829;28;20491;-76
2022/06/13 11:30:30;;;;;;;4.85;0.82;;;;;;;;;;5207348;28;20021;-82
2022/06/13 11:33:01;;;;;;;5.28;1.08;;;;;;;;;;5207949;28;20029;-80
2022/06/13 11:35:43;;;;;;;4.90;1.50;;;;;;;;;;5204153;28;20101;-80
2022/06/13 11:38:31;;;;;;;4.97;1.10;;;;;;;;;;5194712;28;20037;-79
2022/06/13 11:41:17;;;;;;;4.07;0.93;;;;;;;;;;5208235;28;20021;-79
2022/06/13 11:43:54;;;;;;;5.75;1.30;;;;;;;;;;5203811;28;20112;-80
2022/06/13 11:46:26;;;;;;;4.32;1.25;;;;;;;;;;5207618;28;21596;-81
2022/06/13 11:49:01;;;;;;;6.50;1.40;;;;;;;;;;5209175;28;20026;-80
2022/06/13 11:51:39;;;;;;;2.95;1.15;;;;;;;;;;5208045;28;20029;-80
2022/06/13 11:54:22;;;;;;;4.55;1.38;;;;;;;;;;5201561;28;20026;-80
2022/06/13 11:57:12;;;;;;;7.88;1.58;;;;;;;;;;5207107;28;20050;-80
2022/06/13 11:59:49;;;;;;;6.25;1.50;;;;;;;;;;5208522;28;20327;-80
2022/06/13 12:02:23;;;;;;;3.95;1.13;;;;;;;;;;5208695;28;20503;-82
2022/06/13 12:04:56;;;;;;;4.03;1.02;;;;;;;;;;5206871;28;20026;-83
2022/06/13 12:07:29;;;;;;;7.53;1.58;;;;;;;;;;5207174;28;20033;-84
2022/06/13 12:10:00;;;;;;;5.10;1.05;;;;;;;;;;5209062;28;20377;-79
2022/06/13 12:12:45;;;;;;;4.05;1.05;;;;;;;;;;5208174;28;20041;-79
2022/06/13 12:15:17;;;;;;;4.90;1.08;;;;;;;;;;5207827;28;20045;-86
2022/06/13 12:17:59;;;;;;;4.78;1.92;;;;;;;;;;5209728;28;20018;-83
2022/06/13 12:20:40;;;;;;;4.40;1.42;;;;;;;;;;5207409;28;20028;-78
2022/06/13 12:23:20;;;;;;;3.63;1.08;;;;;;;;;;5205538;28;20037;-80
2022/06/13 12:25:55;;;;;;;5.65;1.50;;;;;;;;;;5208758;28;20048;-80
2022/06/13 12:28:30;;;;;;;5.25;1.20;;;;;;;;;;5209486;28;20050;-88
2022/06/13 12:31:01;;;;;;;4.53;0.90;;;;;;;;;;5208141;28;20442;-85
2022/06/13 12:33:38;;;;;;;4.00;1.00;;;;;;;;;;5195824;28;20117;-85
2022/06/13 12:36:23;;;;;;;5.43;1.10;;;;;;;;;;5207356;28;20030;-84
2022/06/13 12:39:06;;;;;;;4.30;1.38;;;;;;;;;;5206761;28;20018;-85
2022/06/13 12:41:45;;;;;;;7.00;1.40;;;;;;;;;;5212561;28;20499;-83
2022/06/13 12:44:20;;;;;;;4.03;1.35;;;;;;;;;;5211223;28;20049;-84
2022/06/13 12:46:58;;;;;;;5.80;1.35;;;;;;;;;;5209541;28;20019;-84
2022/06/13 12:49:42;;;;;;;6.03;1.38;;;;;;;;;;5210852;28;20038;-83
2022/06/13 12:52:27;;;;;;;6.22;1.25;;;;;;;;;;5207070;28;20018;-84
2022/06/13 12:55:04;;;;;;;5.57;1.40;;;;;;;;;;5210361;28;20108;-83
2022/06/13 12:57:48;;;;;;;8.10;2.00;;;;;;;;;;5212996;28;20018;-86
2022/06/13 13:00:19;;;;;;;;;;;;;;;;;;5214727;28;20026;-87
2022/06/13 13:03:09;;;;;;;8.05;1.40;;;;;;;;;;5223270;28;19940;-81
2022/06/13 13:05:49;;;;;;;5.32;1.70;;;;;;;;;;5211297;28;20021;-80
2022/06/13 13:08:26;;;;;;;9.88;1.88;;;;;;;;;;5210671;28;20041;-76
2022/06/13 13:11:06;;;;;;;6.88;1.45;;;;;;;;;;5211879;28;20408;-79
2022/06/13 13:13:51;;;;;;;6.43;1.05;;;;;;;;;;5209638;28;20073;-79
2022/06/13 13:16:42;;;;;;;5.10;1.23;;;;;;;;;;5212856;28;20026;-80
2022/06/13 13:19:16;;;;;;;5.15;1.77;;;;;;;;;;5211525;28;20034;-86
2022/06/13 13:21:47;;;;;;;;;;;;;;;;;;5213554;28;20029;-87
2022/06/13 13:24:42;;;;;;;4.53;1.48;;;;;;;;;;5210969;28;19947;-86
2022/06/13 13:27:15;;;;;;;10.95;2.10;;;;;;;;;;5208959;28;20304;-84
2022/06/13 13:30:04;;;;;;;7.88;1.60;;;;;;;;;;5212401;28;20024;-84
2022/06/13 13:32:59;;;;;;;6.72;1.80;;;;;;;;;;5211350;28;20064;-84
2022/06/13 13:35:41;;;;;;;3.97;1.67;;;;;;;;;;5209625;28;20678;-84
2022/06/13 13:38:24;;;;;;;8.90;2.97;;;;;;;;;;5212216;28;20017;-84
2022/06/13 13:41:10;;;;;;;6.10;1.55;;;;;;;;;;5211136;28;20022;-84
2022/06/13 13:43:48;;;;;;;7.20;1.58;;;;;;;;;;5210840;28;20037;-79
2022/06/13 13:46:27;;;;;;;6.75;2.08;;;;;;;;;;5210197;28;20022;-77
2022/06/13 13:49:00;;;;;;;4.82;1.60;;;;;;;;;;5210591;28;20022;-82
2022/06/13 13:51:40;;;;;;;6.55;1.40;;;;;;;;;;5209716;28;20025;-82
2022/06/13 13:54:21;;;;;;;6.43;1.58;;;;;;;;;;5211103;28;20061;-82
2022/06/13 13:56:57;;;;;;;7.57;1.65;;;;;;;;;;5208380;28;20472;-84
2022/06/13 13:59:31;;;;;;;4.88;1.20;;;;;;;;;;5206073;28;20026;-78
2022/06/13 14:02:21;;;;;;;8.75;1.33;;;;;;;;;;5193299;28;20029;-81
2022/06/13 14:04:52;;;;;;;9.20;2.22;;;;;;;;;;5208490;28;20018;-81
2022/06/13 14:07:26;;;;;;;6.07;1.75;;;;;;;;;;5210070;28;20029;-80
2022/06/13 14:09:57;;;;;;;;;;;;;;;;;;5209009;28;20827;-79
2022/06/13 14:12:29;;;;;;;6.70;2.03;;;;;;;;;;5210609;28;19909;-80
2022/06/13 14:15:00;;;;;;;8.25;1.92;;;;;;;;;;5209438;28;20100;-80
2022/06/13 14:17:38;;;;;;;4.60;1.80;;;;;;;;;;5196914;28;20402;-79
2022/06/13 14:20:19;;;;;;;6.35;1.60;;;;;;;;;;5204682;28;20404;-74
2022/06/13 14:22:52;;;;;;;5.93;1.80;;;;;;;;;;5197032;28;20559;-79
2022/06/13 14:25:36;;;;;;;6.38;1.95;;;;;;;;;;5194723;28;21875;-75
2022/06/13 14:28:15;;;;;;;7.57;1.95;;;;;;;;;;5197902;28;20368;-75
2022/06/13 14:31:06;;;;;;;6.72;2.15;;;;;;;;;;5197294;28;20315;-75
2022/06/13 14:36:52;;;;;;;9.00;2.42;;;;;;;;;;5195769;28;20037;-73
2022/06/13 14:39:30;;;;;;;5.32;1.83;;;;;;;;;;5213306;28;20030;-75
2022/06/13 14:42:01;;;;;;;7.53;1.80;;;;;;;;;;5198789;28;20048;-74
2022/06/13 14:44:32;;;;;;;7.03;2.75;;;;;;;;;;5198070;28;20026;-79
2022/06/13 14:47:11;;;;;;;8.48;2.13;;;;;;;;;;5194226;28;21563;-81
2022/06/13 14:49:42;;;;;;;5.82;2.47;;;;;;;;;;5195686;28;20284;-76
2022/06/13 14:52:16;;;;;;;6.75;2.25;;;;;;;;;;5196675;28;20651;-76
2022/06/13 14:54:49;;;;;;;5.80;2.47;;;;;;;;;;5195191;28;20703;-76
2022/06/13 14:57:26;;;;;;;13.83;2.30;;;;;;;;;;5197038;28;21342;-77
2022/06/13 15:00:03;;;;;;;8.52;2.28;;;;;;;;;;5197863;28;20284;-83
2022/06/13 15:02:53;;;;;;;12.27;2.47;;;;;;;;;;5199286;28;20143;-84
2022/06/13 15:05:30;;;;;;;7.90;2.28;;;;;;;;;;5197361;28;20061;-84
2022/06/13 15:08:20;;;;;;;7.15;1.83;;;;;;;;;;5196482;28;20033;-85
2022/06/13 15:10:54;;;;;;;6.80;2.40;;;;;;;;;;5197563;28;20906;-84
2022/06/13 15:13:26;;;;;;;8.20;1.95;;;;;;;;;;5195108;28;20086;-85
2022/06/13 15:16:01;;;;;;;6.38;1.75;;;;;;;;;;5194614;28;20026;-84
2022/06/13 15:18:34;;;;;;;9.20;1.75;;;;;;;;;;5196097;28;20096;-84
2022/06/13 15:21:11;;;;;;;5.60;1.83;;;;;;;;;;5197282;28;20018;-83
2022/06/13 15:23:44;;;;;;;8.38;1.40;;;;;;;;;;5195540;28;21022;-84
2022/06/13 15:26:22;;;;;;;3.97;1.45;;;;;;;;;;5198291;28;20075;-83
2022/06/13 15:29:02;;;;;;;8.52;2.25;;;;;;;;;;5195430;28;20040;-87
2022/06/13 15:31:35;;;;;;;4.53;1.60;;;;;;;;;;5211886;28;20022;-83
2022/06/13 15:34:18;;;;;;;8.38;2.13;;;;;;;;;;5193462;28;20134;-79
2022/06/13 15:36:54;;;;;;;5.38;1.70;;;;;;;;;;5194493;28;20048;-84
2022/06/13 15:39:31;;;;;;;6.63;1.80;;;;;;;;;;5194880;28;20042;-84
2022/06/13 15:42:18;;;;;;;8.15;2.17;;;;;;;;;;5196465;28;20030;-84
2022/06/13 15:44:50;;;;;;;8.07;1.45;;;;;;;;;;5193866;28;20022;-84
2022/06/13 15:47:23;;;;;;;6.88;1.73;;;;;;;;;;5199500;28;20045;-84
2022/06/13 15:49:55;;;;;;;7.35;2.15;;;;;;;;;;5193937;28;20144;-77
2022/06/13 15:52:34;;;;;;;10.35;2.70;;;;;;;;;;5194791;28;20052;-83
2022/06/13 15:55:07;;;;;;;6.80;2.20;;;;;;;;;;5197943;28;21549;-79
2022/06/13 15:57:42;;;;;;;9.52;1.75;;;;;;;;;;5195495;28;21507;-79